sensor_id;sensor_type;location;lat;lon;timestamp;temperature;humidity
17172;DHT22;8701;50.150;8.756;2024-03-08T00:00:06;6.40;99.90
17172;DHT22;8701;50.150;8.756;2024-03-08T00:04:13;6.40;99.90
17172;DHT22;8701;50.150;8.756;2024-03-08T00:08:19;6.30;99.90
17172;DHT22;8701;50.150;8.756;2024-03-08T00:12:21;6.20;99.90
17172;DHT22;8701;50.150;8.756;2024-03-08T00:16:23;6.10;99.90
17172;DHT22;8701;50.150;8.756;2024-03-08T00:20:26;6.00;99.90
17172;DHT22;8701;50.150;8.756;2024-03-08T00:24:29;5.90;99.90
17172;DHT22;8701;50.150;8.756;2024-03-08T00:28:33;5.90;99.90
17172;DHT22;8701;50.150;8.756;2024-03-08T00:32:35;5.90;99.90
17172;DHT22;8701;50.150;8.756;2024-03-08T00:36:38;5.90;99.90
17172;DHT22;8701;50.150;8.756;2024-03-08T00:40:42;5.90;99.90
17172;DHT22;8701;50.150;8.756;2024-03-08T00:44:44;5.80;99.90
17172;DHT22;8701;50.150;8.756;2024-03-08T00:48:47;5.70;99.90
17172;DHT22;8701;50.150;8.756;2024-03-08T00:52:49;5.60;99.90
17172;DHT22;8701;50.150;8.756;2024-03-08T00:56:53;5.60;99.90
17172;DHT22;8701;50.150;8.756;2024-03-08T01:00:56;5.60;99.90
17172;DHT22;8701;50.150;8.756;2024-03-08T01:04:58;5.50;99.90
17172;DHT22;8701;50.150;8.756;2024-03-08T01:09:00;5.50;99.90
17172;DHT22;8701;50.150;8.756;2024-03-08T01:13:04;5.40;99.90
17172;DHT22;8701;50.150;8.756;2024-03-08T01:17:06;5.40;99.90
17172;DHT22;8701;50.150;8.756;2024-03-08T01:21:10;5.20;99.90
17172;DHT22;8701;50.150;8.756;2024-03-08T01:25:12;5.30;99.90
17172;DHT22;8701;50.150;8.756;2024-03-08T01:29:16;5.20;99.90
17172;DHT22;8701;50.150;8.756;2024-03-08T01:33:18;5.20;99.90
17172;DHT22;8701;50.150;8.756;2024-03-08T01:37:23;5.20;99.90
17172;DHT22;8701;50.150;8.756;2024-03-08T01:41:26;5.20;99.90
17172;DHT22;8701;50.150;8.756;2024-03-08T01:45:32;5.20;99.90
17172;DHT22;8701;50.150;8.756;2024-03-08T01:49:35;5.20;99.90
17172;DHT22;8701;50.150;8.756;2024-03-08T01:53:38;5.10;99.90
17172;DHT22;8701;50.150;8.756;2024-03-08T01:57:40;5.10;99.90
17172;DHT22;8701;50.150;8.756;2024-03-08T02:01:44;5.10;99.90
17172;DHT22;8701;50.150;8.756;2024-03-08T02:05:46;5.10;99.90
17172;DHT22;8701;50.150;8.756;2024-03-08T02:09:49;5.10;99.90
17172;DHT22;8701;50.150;8.756;2024-03-08T02:13:52;5.10;99.90
17172;DHT22;8701;50.150;8.756;2024-03-08T02:17:55;5.20;99.90
17172;DHT22;8701;50.150;8.756;2024-03-08T02:22:00;5.20;99.90
17172;DHT22;8701;50.150;8.756;2024-03-08T02:26:05;5.10;99.90
17172;DHT22;8701;50.150;8.756;2024-03-08T02:30:09;5.10;99.90
17172;DHT22;8701;50.150;8.756;2024-03-08T02:34:13;5.00;99.90
17172;DHT22;8701;50.150;8.756;2024-03-08T02:38:18;4.90;99.90
17172;DHT22;8701;50.150;8.756;2024-03-08T02:42:20;4.90;99.90
17172;DHT22;8701;50.150;8.756;2024-03-08T02:46:23;4.90;99.90
17172;DHT22;8701;50.150;8.756;2024-03-08T02:50:26;4.90;99.90
17172;DHT22;8701;50.150;8.756;2024-03-08T02:54:29;4.80;99.90
17172;DHT22;8701;50.150;8.756;2024-03-08T02:58:31;4.80;99.90
17172;DHT22;8701;50.150;8.756;2024-03-08T03:02:34;4.70;99.90
17172;DHT22;8701;50.150;8.756;2024-03-08T03:06:36;4.70;99.90
17172;DHT22;8701;50.150;8.756;2024-03-08T03:10:41;4.70;99.90
17172;DHT22;8701;50.150;8.756;2024-03-08T03:14:43;4.60;99.90
17172;DHT22;8701;50.150;8.756;2024-03-08T03:18:46;4.60;99.90
17172;DHT22;8701;50.150;8.756;2024-03-08T03:22:49;4.60;99.90
17172;DHT22;8701;50.150;8.756;2024-03-08T03:26:54;4.50;99.90
17172;DHT22;8701;50.150;8.756;2024-03-08T03:30:56;4.50;99.90
17172;DHT22;8701;50.150;8.756;2024-03-08T03:34:59;4.60;99.90
17172;DHT22;8701;50.150;8.756;2024-03-08T03:39:06;4.60;99.90
17172;DHT22;8701;50.150;8.756;2024-03-08T03:43:13;4.60;99.90
17172;DHT22;8701;50.150;8.756;2024-03-08T03:47:15;4.60;99.90
17172;DHT22;8701;50.150;8.756;2024-03-08T03:51:18;4.70;99.90
17172;DHT22;8701;50.150;8.756;2024-03-08T03:55:21;4.60;99.90
17172;DHT22;8701;50.150;8.756;2024-03-08T03:59:24;4.60;99.90
17172;DHT22;8701;50.150;8.756;2024-03-08T04:03:27;4.70;99.90
17172;DHT22;8701;50.150;8.756;2024-03-08T04:07:29;4.70;99.90
17172;DHT22;8701;50.150;8.756;2024-03-08T04:11:31;4.60;99.90
17172;DHT22;8701;50.150;8.756;2024-03-08T04:15:34;4.70;99.90
17172;DHT22;8701;50.150;8.756;2024-03-08T04:19:38;4.70;99.90
17172;DHT22;8701;50.150;8.756;2024-03-08T04:23:41;4.70;99.90
17172;DHT22;8701;50.150;8.756;2024-03-08T04:27:46;4.70;99.90
17172;DHT22;8701;50.150;8.756;2024-03-08T04:31:51;4.70;99.90
17172;DHT22;8701;50.150;8.756;2024-03-08T04:35:55;4.60;99.90
17172;DHT22;8701;50.150;8.756;2024-03-08T04:39:57;4.70;99.90
17172;DHT22;8701;50.150;8.756;2024-03-08T04:44:00;4.60;99.90
17172;DHT22;8701;50.150;8.756;2024-03-08T04:48:07;4.60;99.90
17172;DHT22;8701;50.150;8.756;2024-03-08T04:52:10;4.60;99.90
17172;DHT22;8701;50.150;8.756;2024-03-08T04:56:13;4.60;99.90
17172;DHT22;8701;50.150;8.756;2024-03-08T05:00:16;4.60;99.90
17172;DHT22;8701;50.150;8.756;2024-03-08T05:04:20;4.60;99.90
17172;DHT22;8701;50.150;8.756;2024-03-08T05:08:22;4.50;99.90
17172;DHT22;8701;50.150;8.756;2024-03-08T05:12:24;4.60;99.90
17172;DHT22;8701;50.150;8.756;2024-03-08T05:16:27;4.50;99.90
17172;DHT22;8701;50.150;8.756;2024-03-08T05:20:31;4.40;99.90
17172;DHT22;8701;50.150;8.756;2024-03-08T05:24:33;4.50;99.90
17172;DHT22;8701;50.150;8.756;2024-03-08T05:28:35;4.40;99.90
17172;DHT22;8701;50.150;8.756;2024-03-08T05:32:38;4.30;99.90
17172;DHT22;8701;50.150;8.756;2024-03-08T05:36:41;4.30;99.90
17172;DHT22;8701;50.150;8.756;2024-03-08T05:40:45;4.20;99.90
17172;DHT22;8701;50.150;8.756;2024-03-08T05:44:47;4.10;99.90
17172;DHT22;8701;50.150;8.756;2024-03-08T05:48:50;4.10;99.90
17172;DHT22;8701;50.150;8.756;2024-03-08T05:52:54;4.10;99.90
17172;DHT22;8701;50.150;8.756;2024-03-08T05:56:56;4.10;99.90
17172;DHT22;8701;50.150;8.756;2024-03-08T06:00:59;4.10;99.90
17172;DHT22;8701;50.150;8.756;2024-03-08T06:05:01;4.20;99.90
17172;DHT22;8701;50.150;8.756;2024-03-08T06:09:05;4.20;99.90
17172;DHT22;8701;50.150;8.756;2024-03-08T06:13:17;4.20;99.90
17172;DHT22;8701;50.150;8.756;2024-03-08T06:17:20;4.10;99.90
17172;DHT22;8701;50.150;8.756;2024-03-08T06:21:26;4.10;99.90
17172;DHT22;8701;50.150;8.756;2024-03-08T06:25:30;4.10;99.90
17172;DHT22;8701;50.150;8.756;2024-03-08T06:29:32;4.10;99.90
17172;DHT22;8701;50.150;8.756;2024-03-08T06:33:34;4.20;99.90
17172;DHT22;8701;50.150;8.756;2024-03-08T06:37:37;4.20;99.90
17172;DHT22;8701;50.150;8.756;2024-03-08T06:41:41;4.20;99.90
17172;DHT22;8701;50.150;8.756;2024-03-08T06:45:45;4.20;99.90
17172;DHT22;8701;50.150;8.756;2024-03-08T06:49:49;4.30;99.90
17172;DHT22;8701;50.150;8.756;2024-03-08T06:53:53;4.40;99.90
17172;DHT22;8701;50.150;8.756;2024-03-08T06:57:56;4.50;99.90
17172;DHT22;8701;50.150;8.756;2024-03-08T07:01:59;4.60;99.90
17172;DHT22;8701;50.150;8.756;2024-03-08T07:06:01;4.60;99.90
17172;DHT22;8701;50.150;8.756;2024-03-08T07:10:08;4.80;99.90
17172;DHT22;8701;50.150;8.756;2024-03-08T07:14:13;5.20;99.90
17172;DHT22;8701;50.150;8.756;2024-03-08T07:18:16;5.40;99.90
17172;DHT22;8701;50.150;8.756;2024-03-08T07:22:19;5.70;99.90
17172;DHT22;8701;50.150;8.756;2024-03-08T07:26:21;5.90;99.90
17172;DHT22;8701;50.150;8.756;2024-03-08T07:30:26;6.00;99.90
17172;DHT22;8701;50.150;8.756;2024-03-08T07:34:47;6.20;99.90
17172;DHT22;8701;50.150;8.756;2024-03-08T07:38:52;6.30;99.90
17172;DHT22;8701;50.150;8.756;2024-03-08T07:42:54;6.50;99.90
17172;DHT22;8701;50.150;8.756;2024-03-08T07:46:59;6.80;99.90
17172;DHT22;8701;50.150;8.756;2024-03-08T07:51:01;7.10;99.90
17172;DHT22;8701;50.150;8.756;2024-03-08T07:55:04;7.20;99.90
17172;DHT22;8701;50.150;8.756;2024-03-08T07:59:06;7.40;99.90
17172;DHT22;8701;50.150;8.756;2024-03-08T08:03:10;7.80;99.90
17172;DHT22;8701;50.150;8.756;2024-03-08T08:07:13;8.50;99.90
17172;DHT22;8701;50.150;8.756;2024-03-08T08:11:15;9.20;99.90
17172;DHT22;8701;50.150;8.756;2024-03-08T08:15:18;9.60;99.90
17172;DHT22;8701;50.150;8.756;2024-03-08T08:19:23;10.10;99.90
17172;DHT22;8701;50.150;8.756;2024-03-08T08:23:27;10.80;99.90
17172;DHT22;8701;50.150;8.756;2024-03-08T08:27:30;11.90;99.90
17172;DHT22;8701;50.150;8.756;2024-03-08T08:31:32;13.10;99.90
17172;DHT22;8701;50.150;8.756;2024-03-08T08:35:36;14.40;99.90
17172;DHT22;8701;50.150;8.756;2024-03-08T08:39:39;15.40;99.90
17172;DHT22;8701;50.150;8.756;2024-03-08T08:43:41;16.20;99.90
17172;DHT22;8701;50.150;8.756;2024-03-08T08:47:45;16.90;99.90
17172;DHT22;8701;50.150;8.756;2024-03-08T08:51:50;17.50;99.90
17172;DHT22;8701;50.150;8.756;2024-03-08T08:55:52;18.20;98.40
17172;DHT22;8701;50.150;8.756;2024-03-08T08:59:55;18.70;95.80
17172;DHT22;8701;50.150;8.756;2024-03-08T09:03:58;18.90;94.40
17172;DHT22;8701;50.150;8.756;2024-03-08T09:08:03;19.20;94.30
17172;DHT22;8701;50.150;8.756;2024-03-08T09:12:06;19.50;90.70
17172;DHT22;8701;50.150;8.756;2024-03-08T09:16:09;19.80;93.30
17172;DHT22;8701;50.150;8.756;2024-03-08T09:20:11;20.20;91.40
17172;DHT22;8701;50.150;8.756;2024-03-08T09:24:17;20.20;90.60
17172;DHT22;8701;50.150;8.756;2024-03-08T09:28:19;19.70;89.70
17172;DHT22;8701;50.150;8.756;2024-03-08T09:32:21;19.10;91.50
17172;DHT22;8701;50.150;8.756;2024-03-08T09:36:24;18.50;91.30
17172;DHT22;8701;50.150;8.756;2024-03-08T09:40:28;18.20;90.40
17172;DHT22;8701;50.150;8.756;2024-03-08T09:44:30;18.10;90.30
17172;DHT22;8701;50.150;8.756;2024-03-08T09:48:32;17.80;87.50
17172;DHT22;8701;50.150;8.756;2024-03-08T09:52:36;16.90;89.20
17172;DHT22;8701;50.150;8.756;2024-03-08T09:56:40;16.80;88.80
17172;DHT22;8701;50.150;8.756;2024-03-08T10:00:43;16.60;90.70
17172;DHT22;8701;50.150;8.756;2024-03-08T10:04:45;16.80;89.50
17172;DHT22;8701;50.150;8.756;2024-03-08T10:08:48;17.00;90.30
17172;DHT22;8701;50.150;8.756;2024-03-08T10:12:55;17.10;86.90
17172;DHT22;8701;50.150;8.756;2024-03-08T10:16:57;17.30;87.40
17172;DHT22;8701;50.150;8.756;2024-03-08T10:21:07;17.80;87.10
17172;DHT22;8701;50.150;8.756;2024-03-08T10:25:11;18.30;85.10
17172;DHT22;8701;50.150;8.756;2024-03-08T10:29:15;18.50;84.20
17172;DHT22;8701;50.150;8.756;2024-03-08T10:33:18;18.90;83.90
17172;DHT22;8701;50.150;8.756;2024-03-08T10:37:21;18.90;81.10
17172;DHT22;8701;50.150;8.756;2024-03-08T10:41:30;18.80;83.60
17172;DHT22;8701;50.150;8.756;2024-03-08T10:45:36;19.00;79.80
17172;DHT22;8701;50.150;8.756;2024-03-08T10:49:42;19.30;82.70
17172;DHT22;8701;50.150;8.756;2024-03-08T10:53:49;19.90;81.10
17172;DHT22;8701;50.150;8.756;2024-03-08T10:57:52;20.30;79.40
17172;DHT22;8701;50.150;8.756;2024-03-08T11:01:56;20.70;78.30
17172;DHT22;8701;50.150;8.756;2024-03-08T11:05:58;21.00;77.00
17172;DHT22;8701;50.150;8.756;2024-03-08T11:10:03;21.40;74.20
17172;DHT22;8701;50.150;8.756;2024-03-08T11:14:45;21.60;72.30
17172;DHT22;8701;50.150;8.756;2024-03-08T11:18:53;21.80;75.50
17172;DHT22;8701;50.150;8.756;2024-03-08T11:23:00;22.60;73.10
17172;DHT22;8701;50.150;8.756;2024-03-08T11:27:05;23.00;77.30
17172;DHT22;8701;50.150;8.756;2024-03-08T11:31:31;23.70;71.90
17172;DHT22;8701;50.150;8.756;2024-03-08T11:35:35;24.30;72.30
17172;DHT22;8701;50.150;8.756;2024-03-08T11:39:39;24.30;65.90
17172;DHT22;8701;50.150;8.756;2024-03-08T11:43:41;23.80;63.50
17172;DHT22;8701;50.150;8.756;2024-03-08T11:47:44;23.20;64.30
17172;DHT22;8701;50.150;8.756;2024-03-08T11:51:51;23.20;63.50
17172;DHT22;8701;50.150;8.756;2024-03-08T11:55:54;23.60;65.40
17172;DHT22;8701;50.150;8.756;2024-03-08T11:59:57;24.00;63.20
17172;DHT22;8701;50.150;8.756;2024-03-08T12:04:11;24.60;66.20
17172;DHT22;8701;50.150;8.756;2024-03-08T12:08:16;24.70;62.20
17172;DHT22;8701;50.150;8.756;2024-03-08T12:12:18;24.40;61.70
17172;DHT22;8701;50.150;8.756;2024-03-08T12:16:21;24.70;64.30
17172;DHT22;8701;50.150;8.756;2024-03-08T12:20:24;24.70;60.90
17172;DHT22;8701;50.150;8.756;2024-03-08T12:24:29;25.00;60.50
17172;DHT22;8701;50.150;8.756;2024-03-08T12:28:31;25.50;61.60
17172;DHT22;8701;50.150;8.756;2024-03-08T12:32:34;25.30;58.70
17172;DHT22;8701;50.150;8.756;2024-03-08T12:36:36;24.70;59.00
17172;DHT22;8701;50.150;8.756;2024-03-08T12:40:40;23.50;61.00
17172;DHT22;8701;50.150;8.756;2024-03-08T12:44:45;23.60;62.70
17172;DHT22;8701;50.150;8.756;2024-03-08T12:48:47;24.70;61.40
17172;DHT22;8701;50.150;8.756;2024-03-08T12:52:50;25.20;59.20
17172;DHT22;8701;50.150;8.756;2024-03-08T12:56:54;25.20;60.10
17172;DHT22;8701;50.150;8.756;2024-03-08T13:00:57;24.80;59.80
17172;DHT22;8701;50.150;8.756;2024-03-08T13:05:00;25.30;58.90
17172;DHT22;8701;50.150;8.756;2024-03-08T13:09:06;25.60;60.00
17172;DHT22;8701;50.150;8.756;2024-03-08T13:13:10;26.00;59.50
17172;DHT22;8701;50.150;8.756;2024-03-08T13:17:12;26.10;59.60
17172;DHT22;8701;50.150;8.756;2024-03-08T13:21:15;26.00;58.70
17172;DHT22;8701;50.150;8.756;2024-03-08T13:25:20;25.50;60.10
17172;DHT22;8701;50.150;8.756;2024-03-08T13:29:26;24.70;62.20
17172;DHT22;8701;50.150;8.756;2024-03-08T13:33:28;25.20;58.50
17172;DHT22;8701;50.150;8.756;2024-03-08T13:37:31;25.30;60.10
17172;DHT22;8701;50.150;8.756;2024-03-08T13:41:34;25.30;58.90
17172;DHT22;8701;50.150;8.756;2024-03-08T13:45:38;25.20;61.50
17172;DHT22;8701;50.150;8.756;2024-03-08T13:49:43;25.10;60.30
17172;DHT22;8701;50.150;8.756;2024-03-08T13:53:45;25.60;61.20
17172;DHT22;8701;50.150;8.756;2024-03-08T13:57:47;25.70;61.80
17172;DHT22;8701;50.150;8.756;2024-03-08T14:01:51;25.70;59.90
17172;DHT22;8701;50.150;8.756;2024-03-08T14:05:54;25.60;59.50
17172;DHT22;8701;50.150;8.756;2024-03-08T14:09:58;25.10;62.30
17172;DHT22;8701;50.150;8.756;2024-03-08T14:14:00;25.10;59.40
17172;DHT22;8701;50.150;8.756;2024-03-08T14:18:04;24.60;58.00
17172;DHT22;8701;50.150;8.756;2024-03-08T14:22:07;24.20;59.60
17172;DHT22;8701;50.150;8.756;2024-03-08T14:26:11;23.70;58.80
17172;DHT22;8701;50.150;8.756;2024-03-08T14:30:14;22.80;58.50
17172;DHT22;8701;50.150;8.756;2024-03-08T14:34:34;22.60;59.60
17172;DHT22;8701;50.150;8.756;2024-03-08T14:38:36;23.20;61.40
17172;DHT22;8701;50.150;8.756;2024-03-08T14:42:41;23.10;61.20
17172;DHT22;8701;50.150;8.756;2024-03-08T14:46:44;23.00;59.10
17172;DHT22;8701;50.150;8.756;2024-03-08T14:50:48;22.80;61.80
17172;DHT22;8701;50.150;8.756;2024-03-08T14:54:51;22.80;63.60
17172;DHT22;8701;50.150;8.756;2024-03-08T14:58:53;22.60;60.50
17172;DHT22;8701;50.150;8.756;2024-03-08T15:02:59;22.20;60.10
17172;DHT22;8701;50.150;8.756;2024-03-08T15:07:04;22.00;60.80
17172;DHT22;8701;50.150;8.756;2024-03-08T15:11:06;21.00;60.00
17172;DHT22;8701;50.150;8.756;2024-03-08T15:15:11;20.00;61.10
17172;DHT22;8701;50.150;8.756;2024-03-08T15:19:15;19.20;62.90
17172;DHT22;8701;50.150;8.756;2024-03-08T15:23:19;19.40;64.30
17172;DHT22;8701;50.150;8.756;2024-03-08T15:27:22;19.20;64.70
17172;DHT22;8701;50.150;8.756;2024-03-08T15:31:24;18.60;66.00
17172;DHT22;8701;50.150;8.756;2024-03-08T15:35:28;18.50;69.40
17172;DHT22;8701;50.150;8.756;2024-03-08T15:39:33;18.40;66.70
17172;DHT22;8701;50.150;8.756;2024-03-08T15:43:35;17.60;63.80
17172;DHT22;8701;50.150;8.756;2024-03-08T15:47:39;17.20;66.20
17172;DHT22;8701;50.150;8.756;2024-03-08T15:51:41;16.80;65.80
17172;DHT22;8701;50.150;8.756;2024-03-08T15:55:44;16.70;67.40
17172;DHT22;8701;50.150;8.756;2024-03-08T15:59:47;16.80;66.20
17172;DHT22;8701;50.150;8.756;2024-03-08T16:03:49;16.50;66.40
17172;DHT22;8701;50.150;8.756;2024-03-08T16:07:52;16.10;66.70
17172;DHT22;8701;50.150;8.756;2024-03-08T16:11:58;16.00;72.80
17172;DHT22;8701;50.150;8.756;2024-03-08T16:16:00;15.70;67.20
17172;DHT22;8701;50.150;8.756;2024-03-08T16:20:04;15.40;67.00
17172;DHT22;8701;50.150;8.756;2024-03-08T16:24:12;15.20;69.80
17172;DHT22;8701;50.150;8.756;2024-03-08T16:28:17;15.10;70.10
17172;DHT22;8701;50.150;8.756;2024-03-08T16:32:19;14.80;68.40
17172;DHT22;8701;50.150;8.756;2024-03-08T16:36:21;14.70;70.70
17172;DHT22;8701;50.150;8.756;2024-03-08T16:40:24;14.60;70.10
17172;DHT22;8701;50.150;8.756;2024-03-08T16:44:27;14.50;74.00
17172;DHT22;8701;50.150;8.756;2024-03-08T16:48:29;14.30;76.30
17172;DHT22;8701;50.150;8.756;2024-03-08T16:52:32;14.10;72.60
17172;DHT22;8701;50.150;8.756;2024-03-08T16:56:34;14.00;73.30
17172;DHT22;8701;50.150;8.756;2024-03-08T17:00:40;13.80;72.50
17172;DHT22;8701;50.150;8.756;2024-03-08T17:04:43;13.70;72.00
17172;DHT22;8701;50.150;8.756;2024-03-08T17:08:45;13.60;71.40
17172;DHT22;8701;50.150;8.756;2024-03-08T17:12:47;13.60;74.70
17172;DHT22;8701;50.150;8.756;2024-03-08T17:16:51;13.60;73.90
17172;DHT22;8701;50.150;8.756;2024-03-08T17:20:54;13.60;75.30
17172;DHT22;8701;50.150;8.756;2024-03-08T17:24:58;13.50;75.10
17172;DHT22;8701;50.150;8.756;2024-03-08T17:29:00;13.30;78.00
17172;DHT22;8701;50.150;8.756;2024-03-08T17:33:05;13.30;78.40
17172;DHT22;8701;50.150;8.756;2024-03-08T17:37:10;13.20;78.80
17172;DHT22;8701;50.150;8.756;2024-03-08T17:41:16;13.00;77.70
17172;DHT22;8701;50.150;8.756;2024-03-08T17:45:24;12.90;77.30
17172;DHT22;8701;50.150;8.756;2024-03-08T17:49:29;12.80;80.90
17172;DHT22;8701;50.150;8.756;2024-03-08T17:53:32;12.80;79.80
17172;DHT22;8701;50.150;8.756;2024-03-08T17:57:35;12.70;81.30
17172;DHT22;8701;50.150;8.756;2024-03-08T18:01:40;12.60;82.90
17172;DHT22;8701;50.150;8.756;2024-03-08T18:05:45;12.50;80.90
17172;DHT22;8701;50.150;8.756;2024-03-08T18:09:48;12.40;83.40
17172;DHT22;8701;50.150;8.756;2024-03-08T18:13:50;12.30;83.30
17172;DHT22;8701;50.150;8.756;2024-03-08T18:17:54;12.20;82.90
17172;DHT22;8701;50.150;8.756;2024-03-08T18:21:58;12.20;82.20
17172;DHT22;8701;50.150;8.756;2024-03-08T18:26:01;12.10;83.10
17172;DHT22;8701;50.150;8.756;2024-03-08T18:30:04;12.00;83.00
17172;DHT22;8701;50.150;8.756;2024-03-08T18:34:06;11.90;82.80
17172;DHT22;8701;50.150;8.756;2024-03-08T18:38:10;11.80;84.10
17172;DHT22;8701;50.150;8.756;2024-03-08T18:42:12;11.80;85.00
17172;DHT22;8701;50.150;8.756;2024-03-08T18:46:15;11.70;86.40
17172;DHT22;8701;50.150;8.756;2024-03-08T18:50:19;11.60;88.70
17172;DHT22;8701;50.150;8.756;2024-03-08T18:54:22;11.60;89.60
17172;DHT22;8701;50.150;8.756;2024-03-08T18:58:27;11.60;89.00
17172;DHT22;8701;50.150;8.756;2024-03-08T19:02:32;11.50;90.10
17172;DHT22;8701;50.150;8.756;2024-03-08T19:06:35;11.50;90.40
17172;DHT22;8701;50.150;8.756;2024-03-08T19:10:39;11.40;90.30
17172;DHT22;8701;50.150;8.756;2024-03-08T19:14:41;11.20;90.60
17172;DHT22;8701;50.150;8.756;2024-03-08T19:18:43;11.20;90.40
17172;DHT22;8701;50.150;8.756;2024-03-08T19:22:46;11.10;91.90
17172;DHT22;8701;50.150;8.756;2024-03-08T19:26:50;11.10;92.00
17172;DHT22;8701;50.150;8.756;2024-03-08T19:30:52;11.10;91.70
17172;DHT22;8701;50.150;8.756;2024-03-08T19:34:55;11.00;91.80
17172;DHT22;8701;50.150;8.756;2024-03-08T19:38:58;11.00;92.30
17172;DHT22;8701;50.150;8.756;2024-03-08T19:43:03;10.90;92.60
17172;DHT22;8701;50.150;8.756;2024-03-08T19:47:08;10.80;92.70
17172;DHT22;8701;50.150;8.756;2024-03-08T19:51:13;10.70;92.60
17172;DHT22;8701;50.150;8.756;2024-03-08T19:55:19;10.60;93.20
17172;DHT22;8701;50.150;8.756;2024-03-08T19:59:23;10.60;94.20
17172;DHT22;8701;50.150;8.756;2024-03-08T20:03:26;10.60;93.80
17172;DHT22;8701;50.150;8.756;2024-03-08T20:07:30;10.50;93.20
17172;DHT22;8701;50.150;8.756;2024-03-08T20:11:32;10.40;93.80
17172;DHT22;8701;50.150;8.756;2024-03-08T20:15:37;10.30;93.40
17172;DHT22;8701;50.150;8.756;2024-03-08T20:19:43;10.30;95.50
17172;DHT22;8701;50.150;8.756;2024-03-08T20:23:46;10.20;94.20
17172;DHT22;8701;50.150;8.756;2024-03-08T20:27:51;10.20;94.50
17172;DHT22;8701;50.150;8.756;2024-03-08T20:31:55;10.10;94.10
17172;DHT22;8701;50.150;8.756;2024-03-08T20:35:58;10.00;95.10
17172;DHT22;8701;50.150;8.756;2024-03-08T20:40:00;10.00;94.80
17172;DHT22;8701;50.150;8.756;2024-03-08T20:44:02;9.90;95.40
17172;DHT22;8701;50.150;8.756;2024-03-08T20:48:07;9.80;95.80
17172;DHT22;8701;50.150;8.756;2024-03-08T20:52:09;9.80;95.80
17172;DHT22;8701;50.150;8.756;2024-03-08T20:56:12;9.60;96.00
17172;DHT22;8701;50.150;8.756;2024-03-08T21:00:16;9.60;96.70
17172;DHT22;8701;50.150;8.756;2024-03-08T21:04:36;9.50;97.10
17172;DHT22;8701;50.150;8.756;2024-03-08T21:08:42;9.40;96.90
17172;DHT22;8701;50.150;8.756;2024-03-08T21:12:44;9.40;97.10
17172;DHT22;8701;50.150;8.756;2024-03-08T21:16:52;9.30;97.10
17172;DHT22;8701;50.150;8.756;2024-03-08T21:20:56;9.30;97.30
17172;DHT22;8701;50.150;8.756;2024-03-08T21:24:58;9.20;97.60
17172;DHT22;8701;50.150;8.756;2024-03-08T21:29:00;9.20;97.80
17172;DHT22;8701;50.150;8.756;2024-03-08T21:33:04;9.00;98.00
17172;DHT22;8701;50.150;8.756;2024-03-08T21:37:12;9.00;98.20
17172;DHT22;8701;50.150;8.756;2024-03-08T21:41:15;9.00;98.50
17172;DHT22;8701;50.150;8.756;2024-03-08T21:45:18;8.90;98.80
17172;DHT22;8701;50.150;8.756;2024-03-08T21:49:21;8.80;99.30
17172;DHT22;8701;50.150;8.756;2024-03-08T21:53:24;8.70;99.90
17172;DHT22;8701;50.150;8.756;2024-03-08T21:57:27;8.60;99.90
17172;DHT22;8701;50.150;8.756;2024-03-08T22:01:29;8.60;99.90
17172;DHT22;8701;50.150;8.756;2024-03-08T22:05:33;8.70;99.90
17172;DHT22;8701;50.150;8.756;2024-03-08T22:09:38;8.70;99.90
17172;DHT22;8701;50.150;8.756;2024-03-08T22:13:40;8.70;99.90
17172;DHT22;8701;50.150;8.756;2024-03-08T22:17:43;8.60;99.90
17172;DHT22;8701;50.150;8.756;2024-03-08T22:21:47;8.50;99.90
17172;DHT22;8701;50.150;8.756;2024-03-08T22:25:51;8.50;99.90
17172;DHT22;8701;50.150;8.756;2024-03-08T22:29:53;8.50;99.90
17172;DHT22;8701;50.150;8.756;2024-03-08T22:33:55;8.50;99.90
17172;DHT22;8701;50.150;8.756;2024-03-08T22:37:58;8.50;99.90
17172;DHT22;8701;50.150;8.756;2024-03-08T22:42:03;8.40;99.90
17172;DHT22;8701;50.150;8.756;2024-03-08T22:46:07;8.40;99.90
17172;DHT22;8701;50.150;8.756;2024-03-08T22:50:11;8.30;99.90
17172;DHT22;8701;50.150;8.756;2024-03-08T22:54:14;8.20;99.90
17172;DHT22;8701;50.150;8.756;2024-03-08T22:58:20;8.20;99.90
17172;DHT22;8701;50.150;8.756;2024-03-08T23:02:23;8.10;99.90
17172;DHT22;8701;50.150;8.756;2024-03-08T23:06:25;8.10;99.90
17172;DHT22;8701;50.150;8.756;2024-03-08T23:10:28;8.00;99.90
17172;DHT22;8701;50.150;8.756;2024-03-08T23:14:31;8.00;99.90
17172;DHT22;8701;50.150;8.756;2024-03-08T23:18:34;8.00;99.90
17172;DHT22;8701;50.150;8.756;2024-03-08T23:22:36;8.00;99.90
17172;DHT22;8701;50.150;8.756;2024-03-08T23:26:39;8.00;99.90
17172;DHT22;8701;50.150;8.756;2024-03-08T23:30:44;7.90;99.90
17172;DHT22;8701;50.150;8.756;2024-03-08T23:34:46;7.90;99.90
17172;DHT22;8701;50.150;8.756;2024-03-08T23:38:48;7.80;99.90
17172;DHT22;8701;50.150;8.756;2024-03-08T23:42:51;7.80;99.90
17172;DHT22;8701;50.150;8.756;2024-03-08T23:46:56;7.80;99.90
17172;DHT22;8701;50.150;8.756;2024-03-08T23:50:58;7.70;99.90
17172;DHT22;8701;50.150;8.756;2024-03-08T23:55:01;7.70;99.90
17172;DHT22;8701;50.150;8.756;2024-03-08T23:59:05;7.70;99.90
